EZY28YR EGPE-EGGW
Flight info
| Callsign | EZY28YR |
|---|---|
| Flight time | 1h 6m |
| Altitude | 35000 |
| Route | GUSSI DCT NESDI DCT ERSON DCT AKOMU DCT VAMEB UL612 LISTO |
| Aircraft | A320/M-SDE2E3FGHIJ1RWXYZ/LB1 |
Departure
| Time | 2026-05-09 14:07 |
|---|---|
| Airport | Inverness Airport (EGPE) |
Arrival
| Time | 2026-05-09 15:13 |
|---|---|
| Airport | London Luton Airport (EGGW) |
| Time | Latitude | Longitude | Altitude | Speed | Heading |
|---|---|---|---|---|---|
| 2026-05-09 13:37 | 57.53972 | -4.06261 | 36 ft | 0 kts | 275° |
| 2026-05-09 14:00 | 57.53972 | -4.06258 | 36 ft | 2 kts | 275° |
| 2026-05-09 14:01 | 57.53970 | -4.06211 | 33 ft | 4 kts | 268° |
| 2026-05-09 14:01 | 57.53975 | -4.06165 | 32 ft | 4 kts | 222° |
| 2026-05-09 14:01 | 57.53983 | -4.06155 | 32 ft | 0 kts | 184° |
| 2026-05-09 14:04 | 57.53973 | -4.06156 | 36 ft | 4 kts | 184° |
| 2026-05-09 14:04 | 57.53925 | -4.06162 | 36 ft | 10 kts | 184° |
| 2026-05-09 14:05 | 57.53855 | -4.06175 | 36 ft | 10 kts | 187° |
| 2026-05-09 14:05 | 57.53804 | -4.06183 | 36 ft | 5 kts | 179° |
| 2026-05-09 14:05 | 57.53779 | -4.06163 | 36 ft | 3 kts | 141° |
| 2026-05-09 14:05 | 57.53757 | -4.06105 | 37 ft | 8 kts | 122° |
| 2026-05-09 14:06 | 57.53732 | -4.06031 | 40 ft | 4 kts | 122° |
| 2026-05-09 14:06 | 57.53709 | -4.05959 | 38 ft | 10 kts | 111° |
| 2026-05-09 14:06 | 57.53724 | -4.05895 | 39 ft | 0 kts | 49° |
| 2026-05-09 14:06 | 57.53759 | -4.05821 | 40 ft | 38 kts | 49° |
| 2026-05-09 14:07 | 57.54132 | -4.05012 | 34 ft | 124 kts | 49° |
| 2026-05-09 14:07 | 57.54844 | -4.03515 | 256 ft | 171 kts | 45° |
| 2026-05-09 14:07 | 57.55638 | -4.01820 | 1205 ft | 173 kts | 46° |
| 2026-05-09 14:07 | 57.56412 | -4.00124 | 2193 ft | 173 kts | 47° |
| 2026-05-09 14:08 | 57.57227 | -3.98323 | 2599 ft | 193 kts | 51° |
| 2026-05-09 14:08 | 57.57717 | -3.95835 | 2882 ft | 223 kts | 84° |
| 2026-05-09 14:08 | 57.57377 | -3.92867 | 3310 ft | 252 kts | 120° |
| 2026-05-09 14:08 | 57.56030 | -3.90679 | 3930 ft | 267 kts | 159° |
| 2026-05-09 14:09 | 57.54196 | -3.90216 | 4800 ft | 269 kts | 185° |
| 2026-05-09 14:09 | 57.52343 | -3.90743 | 5754 ft | 270 kts | 195° |
| 2026-05-09 14:09 | 57.50519 | -3.91612 | 6693 ft | 271 kts | 197° |
| 2026-05-09 14:09 | 57.48693 | -3.92551 | 7585 ft | 273 kts | 197° |
| 2026-05-09 14:10 | 57.44971 | -3.94305 | 9340 ft | 279 kts | 195° |
| 2026-05-09 14:10 | 57.43069 | -3.95106 | 10151 ft | 281 kts | 194° |
| 2026-05-09 14:10 | 57.41138 | -3.95873 | 10754 ft | 292 kts | 194° |
| 2026-05-09 14:11 | 57.39072 | -3.96672 | 11012 ft | 315 kts | 194° |
| 2026-05-09 14:11 | 57.36886 | -3.97498 | 11576 ft | 325 kts | 194° |
| 2026-05-09 14:11 | 57.34650 | -3.98335 | 12316 ft | 329 kts | 194° |
| 2026-05-09 14:11 | 57.32396 | -3.99173 | 13087 ft | 332 kts | 194° |
| 2026-05-09 14:12 | 57.30111 | -4.00023 | 13859 ft | 336 kts | 195° |
| 2026-05-09 14:12 | 57.27814 | -4.00878 | 14548 ft | 339 kts | 195° |
| 2026-05-09 14:12 | 57.25489 | -4.01742 | 15207 ft | 341 kts | 195° |
| 2026-05-09 14:12 | 57.23152 | -4.02612 | 15848 ft | 344 kts | 195° |
| 2026-05-09 14:13 | 57.20794 | -4.03492 | 16486 ft | 347 kts | 195° |
| 2026-05-09 14:14 | 57.03720 | -4.09819 | 20516 ft | 367 kts | 196° |
| 2026-05-09 14:15 | 57.01206 | -4.10748 | 21041 ft | 370 kts | 196° |
| 2026-05-09 14:15 | 56.98673 | -4.11683 | 21577 ft | 373 kts | 196° |
| 2026-05-09 14:15 | 56.96085 | -4.12635 | 22079 ft | 375 kts | 196° |
| 2026-05-09 14:15 | 56.93547 | -4.13566 | 22598 ft | 378 kts | 196° |
| 2026-05-09 14:16 | 56.90965 | -4.14510 | 23110 ft | 380 kts | 196° |
| 2026-05-09 14:16 | 56.88356 | -4.15458 | 23594 ft | 383 kts | 196° |
| 2026-05-09 14:16 | 56.85700 | -4.16424 | 24027 ft | 386 kts | 196° |
| 2026-05-09 14:16 | 56.83095 | -4.17375 | 24405 ft | 388 kts | 196° |
| 2026-05-09 14:17 | 56.80409 | -4.18349 | 24818 ft | 390 kts | 196° |
| 2026-05-09 14:17 | 56.77740 | -4.19314 | 25219 ft | 391 kts | 196° |
| 2026-05-09 14:17 | 56.75092 | -4.20272 | 25614 ft | 393 kts | 196° |
| 2026-05-09 14:17 | 56.72414 | -4.21240 | 26019 ft | 394 kts | 196° |
| 2026-05-09 14:18 | 56.69718 | -4.22218 | 26417 ft | 395 kts | 196° |
| 2026-05-09 14:18 | 56.67019 | -4.23198 | 26814 ft | 397 kts | 196° |
| 2026-05-09 14:18 | 56.64301 | -4.24181 | 27223 ft | 398 kts | 196° |
| 2026-05-09 14:18 | 56.61583 | -4.25163 | 27611 ft | 399 kts | 196° |
| 2026-05-09 14:19 | 56.58848 | -4.26153 | 28004 ft | 401 kts | 197° |
| 2026-05-09 14:19 | 56.56115 | -4.27136 | 28394 ft | 402 kts | 196° |
| 2026-05-09 14:19 | 56.53361 | -4.28123 | 28792 ft | 403 kts | 196° |
| 2026-05-09 14:19 | 56.50601 | -4.29104 | 29173 ft | 405 kts | 195° |
| 2026-05-09 14:20 | 56.47774 | -4.29612 | 29535 ft | 413 kts | 186° |
| 2026-05-09 14:20 | 56.44884 | -4.29253 | 29892 ft | 422 kts | 177° |
| 2026-05-09 14:20 | 56.42007 | -4.27962 | 30236 ft | 431 kts | 167° |
| 2026-05-09 14:21 | 56.36315 | -4.24304 | 30762 ft | 435 kts | 167° |
| 2026-05-09 14:21 | 56.33459 | -4.22485 | 30994 ft | 437 kts | 167° |
| 2026-05-09 14:21 | 56.30587 | -4.20666 | 31224 ft | 438 kts | 167° |
| 2026-05-09 14:21 | 56.27717 | -4.18849 | 31542 ft | 438 kts | 167° |
| 2026-05-09 14:22 | 56.24841 | -4.17033 | 31878 ft | 437 kts | 167° |
| 2026-05-09 14:22 | 56.21968 | -4.15226 | 32226 ft | 437 kts | 167° |
| 2026-05-09 14:22 | 56.19066 | -4.13401 | 32552 ft | 436 kts | 167° |
| 2026-05-09 14:22 | 56.16233 | -4.11622 | 32890 ft | 436 kts | 167° |
| 2026-05-09 14:23 | 56.13370 | -4.09831 | 33224 ft | 435 kts | 167° |
| 2026-05-09 14:23 | 56.10472 | -4.08022 | 33549 ft | 435 kts | 167° |
| 2026-05-09 14:23 | 56.07650 | -4.06259 | 33871 ft | 434 kts | 167° |
| 2026-05-09 14:23 | 56.04801 | -4.04480 | 34220 ft | 434 kts | 167° |
| 2026-05-09 14:24 | 56.01948 | -4.02704 | 34507 ft | 433 kts | 167° |
| 2026-05-09 14:24 | 55.99103 | -4.00939 | 34757 ft | 433 kts | 167° |
| 2026-05-09 14:24 | 55.96250 | -3.99171 | 34992 ft | 434 kts | 167° |
| 2026-05-09 14:24 | 55.93398 | -3.97403 | 35199 ft | 434 kts | 166° |
| 2026-05-09 14:25 | 55.87713 | -3.93876 | 35284 ft | 429 kts | 166° |
| 2026-05-09 14:25 | 55.82096 | -3.90401 | 35280 ft | 427 kts | 167° |
| 2026-05-09 14:26 | 55.76490 | -3.86953 | 35278 ft | 426 kts | 167° |
| 2026-05-09 14:26 | 55.70863 | -3.83508 | 35280 ft | 425 kts | 167° |
| 2026-05-09 14:27 | 55.65271 | -3.80092 | 35275 ft | 425 kts | 167° |
| 2026-05-09 14:27 | 55.59677 | -3.76682 | 35274 ft | 424 kts | 167° |
| 2026-05-09 14:28 | 55.54095 | -3.73290 | 35264 ft | 424 kts | 166° |
| 2026-05-09 14:28 | 55.48516 | -3.69920 | 35265 ft | 424 kts | 166° |
| 2026-05-09 14:29 | 55.42941 | -3.66561 | 35263 ft | 423 kts | 166° |
| 2026-05-09 14:29 | 55.37369 | -3.63206 | 35264 ft | 423 kts | 166° |
| 2026-05-09 14:30 | 55.31803 | -3.59855 | 35265 ft | 423 kts | 166° |
| 2026-05-09 14:30 | 55.26227 | -3.56513 | 35268 ft | 423 kts | 166° |
| 2026-05-09 14:31 | 55.20656 | -3.53191 | 35269 ft | 422 kts | 166° |
| 2026-05-09 14:31 | 55.15091 | -3.49885 | 35269 ft | 423 kts | 166° |
| 2026-05-09 14:32 | 55.09522 | -3.46587 | 35271 ft | 422 kts | 166° |
| 2026-05-09 14:32 | 55.03956 | -3.43286 | 35279 ft | 423 kts | 166° |
| 2026-05-09 14:33 | 54.98397 | -3.40003 | 35277 ft | 423 kts | 166° |
| 2026-05-09 14:33 | 54.92819 | -3.36734 | 35274 ft | 422 kts | 166° |
| 2026-05-09 14:34 | 54.87245 | -3.33480 | 35274 ft | 422 kts | 166° |
| 2026-05-09 14:34 | 54.82600 | -3.30757 | 35275 ft | 422 kts | 166° |
| 2026-05-09 14:35 | 54.77018 | -3.27493 | 35271 ft | 422 kts | 166° |
| 2026-05-09 14:35 | 54.70548 | -3.23742 | 35265 ft | 422 kts | 166° |
| 2026-05-09 14:36 | 54.65878 | -3.21042 | 35263 ft | 421 kts | 166° |
| 2026-05-09 14:36 | 54.60357 | -3.17854 | 35258 ft | 421 kts | 166° |
| 2026-05-09 14:37 | 54.54810 | -3.14650 | 35251 ft | 420 kts | 166° |
| 2026-05-09 14:37 | 54.49231 | -3.11440 | 35248 ft | 419 kts | 166° |
| 2026-05-09 14:38 | 54.43698 | -3.08271 | 35247 ft | 419 kts | 166° |
| 2026-05-09 14:38 | 54.38174 | -3.05106 | 35243 ft | 419 kts | 166° |
| 2026-05-09 14:39 | 54.32645 | -3.01954 | 35237 ft | 418 kts | 166° |
| 2026-05-09 14:39 | 54.27130 | -2.98826 | 35230 ft | 417 kts | 166° |
| 2026-05-09 14:40 | 54.21623 | -2.95714 | 35222 ft | 416 kts | 166° |
| 2026-05-09 14:40 | 54.16124 | -2.92556 | 35215 ft | 417 kts | 164° |
| 2026-05-09 14:41 | 54.10739 | -2.88799 | 35211 ft | 419 kts | 160° |
| 2026-05-09 14:41 | 54.05423 | -2.84729 | 35203 ft | 419 kts | 160° |
| 2026-05-09 14:42 | 54.00093 | -2.80727 | 35200 ft | 418 kts | 161° |
| 2026-05-09 14:42 | 53.94751 | -2.76851 | 35202 ft | 417 kts | 161° |
| 2026-05-09 14:43 | 53.89398 | -2.73021 | 35198 ft | 417 kts | 161° |
| 2026-05-09 14:43 | 53.84053 | -2.69188 | 35197 ft | 416 kts | 161° |
| 2026-05-09 14:44 | 53.78731 | -2.65352 | 35192 ft | 416 kts | 161° |
| 2026-05-09 14:44 | 53.73400 | -2.61517 | 35189 ft | 416 kts | 161° |
| 2026-05-09 14:45 | 53.68073 | -2.57710 | 35186 ft | 415 kts | 161° |
| 2026-05-09 14:45 | 53.62747 | -2.53932 | 35181 ft | 415 kts | 161° |
| 2026-05-09 14:46 | 53.57429 | -2.50156 | 35182 ft | 415 kts | 161° |
| 2026-05-09 14:46 | 53.52106 | -2.46390 | 35190 ft | 414 kts | 161° |
| 2026-05-09 14:47 | 53.46796 | -2.42640 | 35187 ft | 413 kts | 160° |
| 2026-05-09 14:47 | 53.41490 | -2.38897 | 35199 ft | 413 kts | 160° |
| 2026-05-09 14:48 | 53.36197 | -2.35173 | 35200 ft | 413 kts | 160° |
| 2026-05-09 14:48 | 53.30904 | -2.31454 | 35188 ft | 412 kts | 160° |
| 2026-05-09 14:49 | 53.25622 | -2.27771 | 35193 ft | 411 kts | 161° |
| 2026-05-09 14:49 | 53.20331 | -2.24099 | 35201 ft | 411 kts | 160° |
| 2026-05-09 14:50 | 53.15070 | -2.20362 | 35176 ft | 412 kts | 156° |
| 2026-05-09 14:50 | 53.12609 | -2.17859 | 34987 ft | 413 kts | 147° |
| 2026-05-09 14:50 | 53.10317 | -2.15030 | 34738 ft | 409 kts | 147° |
| 2026-05-09 14:51 | 53.08064 | -2.12254 | 34515 ft | 405 kts | 147° |
| 2026-05-09 14:51 | 53.05781 | -2.09456 | 34260 ft | 401 kts | 147° |
| 2026-05-09 14:51 | 53.03567 | -2.06754 | 34001 ft | 398 kts | 148° |
| 2026-05-09 14:51 | 53.01310 | -2.04014 | 33720 ft | 395 kts | 148° |
| 2026-05-09 14:52 | 52.99094 | -2.01335 | 33442 ft | 394 kts | 148° |
| 2026-05-09 14:52 | 52.96905 | -1.98697 | 33157 ft | 392 kts | 148° |
| 2026-05-09 14:52 | 52.94672 | -1.96009 | 32884 ft | 391 kts | 148° |
| 2026-05-09 14:52 | 52.92473 | -1.93362 | 32611 ft | 390 kts | 148° |
| 2026-05-09 14:53 | 52.90289 | -1.90730 | 32348 ft | 388 kts | 148° |
| 2026-05-09 14:53 | 52.88104 | -1.88098 | 32077 ft | 387 kts | 147° |
| 2026-05-09 14:53 | 52.85925 | -1.85472 | 31817 ft | 386 kts | 147° |
| 2026-05-09 14:53 | 52.83773 | -1.82878 | 31426 ft | 382 kts | 147° |
| 2026-05-09 14:54 | 52.81622 | -1.80292 | 30945 ft | 380 kts | 147° |
| 2026-05-09 14:54 | 52.79488 | -1.77730 | 30488 ft | 378 kts | 147° |
| 2026-05-09 14:54 | 52.77360 | -1.75180 | 29967 ft | 376 kts | 147° |
| 2026-05-09 14:54 | 52.75251 | -1.72670 | 29504 ft | 371 kts | 149° |
| 2026-05-09 14:55 | 52.73038 | -1.70551 | 29070 ft | 365 kts | 155° |
| 2026-05-09 14:55 | 52.70802 | -1.68629 | 28642 ft | 360 kts | 155° |
| 2026-05-09 14:55 | 52.68593 | -1.66727 | 28226 ft | 357 kts | 155° |
| 2026-05-09 14:55 | 52.66408 | -1.64844 | 27812 ft | 353 kts | 155° |
| 2026-05-09 14:56 | 52.64231 | -1.62974 | 27390 ft | 350 kts | 155° |
| 2026-05-09 14:56 | 52.62078 | -1.61126 | 26976 ft | 347 kts | 155° |
| 2026-05-09 14:56 | 52.59943 | -1.59296 | 26554 ft | 345 kts | 155° |
| 2026-05-09 14:56 | 52.57817 | -1.57478 | 26133 ft | 344 kts | 155° |
| 2026-05-09 14:57 | 52.55699 | -1.55669 | 25691 ft | 342 kts | 155° |
| 2026-05-09 14:57 | 52.53588 | -1.53865 | 25262 ft | 342 kts | 155° |
| 2026-05-09 14:57 | 52.51478 | -1.52062 | 24822 ft | 341 kts | 155° |
| 2026-05-09 14:57 | 52.49370 | -1.50265 | 24384 ft | 341 kts | 155° |
| 2026-05-09 14:58 | 52.47263 | -1.48469 | 23924 ft | 342 kts | 155° |
| 2026-05-09 14:58 | 52.45149 | -1.46669 | 23424 ft | 343 kts | 155° |
| 2026-05-09 14:58 | 52.43030 | -1.44863 | 22936 ft | 342 kts | 154° |
| 2026-05-09 14:58 | 52.40924 | -1.43070 | 22492 ft | 340 kts | 155° |
| 2026-05-09 14:59 | 52.38819 | -1.41285 | 22057 ft | 340 kts | 155° |
| 2026-05-09 14:59 | 52.36721 | -1.39510 | 21539 ft | 340 kts | 155° |
| 2026-05-09 14:59 | 52.34603 | -1.37720 | 20808 ft | 348 kts | 155° |
| 2026-05-09 14:59 | 52.32407 | -1.35869 | 19886 ft | 362 kts | 155° |
| 2026-05-09 15:00 | 52.30146 | -1.33963 | 19280 ft | 366 kts | 154° |
| 2026-05-09 15:00 | 52.27901 | -1.32012 | 18819 ft | 365 kts | 153° |
| 2026-05-09 15:00 | 52.25724 | -1.29998 | 18392 ft | 363 kts | 152° |
| 2026-05-09 15:00 | 52.23524 | -1.27895 | 17212 ft | 366 kts | 151° |
| 2026-05-09 15:01 | 52.19057 | -1.23583 | 15036 ft | 370 kts | 150° |
| 2026-05-09 15:01 | 52.16871 | -1.21494 | 14149 ft | 367 kts | 151° |
| 2026-05-09 15:01 | 52.14676 | -1.19419 | 13202 ft | 363 kts | 151° |
| 2026-05-09 15:02 | 52.12503 | -1.17378 | 12297 ft | 357 kts | 151° |
| 2026-05-09 15:02 | 52.10369 | -1.15384 | 11427 ft | 350 kts | 151° |
| 2026-05-09 15:02 | 52.08274 | -1.13432 | 10573 ft | 343 kts | 151° |
| 2026-05-09 15:02 | 52.06235 | -1.11531 | 10046 ft | 328 kts | 151° |
| 2026-05-09 15:03 | 52.04301 | -1.09733 | 9487 ft | 315 kts | 151° |
| 2026-05-09 15:03 | 52.02413 | -1.07993 | 8704 ft | 310 kts | 150° |
| 2026-05-09 15:03 | 52.00792 | -1.06354 | 8016 ft | 306 kts | 139° |
| 2026-05-09 15:03 | 51.99428 | -1.03649 | 7302 ft | 299 kts | 123° |
| 2026-05-09 15:04 | 51.98290 | -1.00930 | 7050 ft | 280 kts | 124° |
| 2026-05-09 15:04 | 51.97194 | -0.98397 | 6638 ft | 271 kts | 125° |
| 2026-05-09 15:06 | 51.90149 | -0.82307 | 5282 ft | 218 kts | 124° |
| 2026-05-09 15:06 | 51.89289 | -0.80337 | 5195 ft | 210 kts | 123° |
| 2026-05-09 15:06 | 51.88456 | -0.78425 | 5099 ft | 206 kts | 123° |
| 2026-05-09 15:06 | 51.87541 | -0.76703 | 5013 ft | 203 kts | 141° |
| 2026-05-09 15:07 | 51.86284 | -0.75648 | 4829 ft | 206 kts | 162° |
| 2026-05-09 15:07 | 51.85368 | -0.75239 | 4668 ft | 205 kts | 162° |
| 2026-05-09 15:07 | 51.83982 | -0.74610 | 4452 ft | 208 kts | 161° |
| 2026-05-09 15:07 | 51.82622 | -0.73901 | 4225 ft | 200 kts | 149° |
| 2026-05-09 15:08 | 51.81727 | -0.72333 | 4109 ft | 185 kts | 110° |
| 2026-05-09 15:08 | 51.81952 | -0.68369 | 3954 ft | 176 kts | 74° |
| 2026-05-09 15:08 | 51.82285 | -0.66498 | 3839 ft | 171 kts | 75° |
| 2026-05-09 15:09 | 51.82611 | -0.64649 | 3765 ft | 171 kts | 74° |
| 2026-05-09 15:10 | 51.84895 | -0.51618 | 2236 ft | 176 kts | 73° |
| 2026-05-09 15:11 | 51.85219 | -0.49763 | 2000 ft | 167 kts | 74° |
| 2026-05-09 15:11 | 51.85530 | -0.47979 | 1794 ft | 161 kts | 75° |
| 2026-05-09 15:11 | 51.85826 | -0.46279 | 1556 ft | 152 kts | 74° |
| 2026-05-09 15:11 | 51.86099 | -0.44709 | 1372 ft | 142 kts | 73° |
| 2026-05-09 15:12 | 51.86360 | -0.43204 | 1183 ft | 137 kts | 73° |
| 2026-05-09 15:12 | 51.86610 | -0.41736 | 989 ft | 135 kts | 74° |
| 2026-05-09 15:12 | 51.86867 | -0.40268 | 831 ft | 135 kts | 73° |
| 2026-05-09 15:12 | 51.87124 | -0.38794 | 630 ft | 136 kts | 72° |
| 2026-05-09 15:13 | 51.87370 | -0.37381 | 522 ft | 118 kts | 74° |
| 2026-05-09 15:13 | 51.87545 | -0.36367 | 520 ft | 69 kts | 74° |
| 2026-05-09 15:13 | 51.87612 | -0.35976 | 517 ft | 16 kts | 75° |
| 2026-05-09 15:13 | 51.87700 | -0.35931 | 519 ft | 15 kts | 343° |
| 2026-05-09 15:14 | 51.87782 | -0.36019 | 519 ft | 13 kts | 289° |
| 2026-05-09 15:14 | 51.87772 | -0.36151 | 519 ft | 11 kts | 255° |
| 2026-05-09 15:14 | 51.87752 | -0.36263 | 520 ft | 10 kts | 254° |
| 2026-05-09 15:14 | 51.87728 | -0.36395 | 520 ft | 15 kts | 254° |
| 2026-05-09 15:15 | 51.87699 | -0.36571 | 520 ft | 16 kts | 255° |
| 2026-05-09 15:15 | 51.87673 | -0.36718 | 520 ft | 12 kts | 254° |
| 2026-05-09 15:15 | 51.87651 | -0.36846 | 521 ft | 12 kts | 254° |
| 2026-05-09 15:15 | 51.87622 | -0.37012 | 522 ft | 17 kts | 254° |
| 2026-05-09 15:16 | 51.87595 | -0.37163 | 522 ft | 12 kts | 254° |
| 2026-05-09 15:16 | 51.87576 | -0.37286 | 522 ft | 11 kts | 259° |
| 2026-05-09 15:16 | 51.87589 | -0.37397 | 522 ft | 10 kts | 295° |
| 2026-05-09 15:16 | 51.87640 | -0.37469 | 522 ft | 11 kts | 333° |
| 2026-05-09 15:17 | 51.87692 | -0.37543 | 522 ft | 9 kts | 300° |
| 2026-05-09 15:17 | 51.87720 | -0.37638 | 522 ft | 10 kts | 295° |
| 2026-05-09 15:17 | 51.87750 | -0.37744 | 523 ft | 9 kts | 295° |
| 2026-05-09 15:17 | 51.87777 | -0.37813 | 523 ft | 4 kts | 348° |
| 2026-05-09 15:18 | 51.87809 | -0.37793 | 523 ft | 5 kts | 26° |
| 2026-05-09 15:18 | 51.87818 | -0.37787 | 523 ft | 0 kts | 25° |
| 2026-05-09 15:18 | 51.87820 | -0.37785 | 523 ft | 0 kts | 25° |
| 2026-05-09 15:18 | 51.87823 | -0.37783 | 523 ft | 0 kts | 25° |